KPHT/PHT METAR and TAF weather

Enter ICAO airport designator
Station Type Date Time Source
KPHT METAR 2020/02/26 10:55 UTC NOAA

KPHT 261055Z AUTO 27006KT 10SM OVC013 03/02 A2996 RMK A01


Station Type Date Time Source
KPHT Decoded METAR 2020/02/26 10:55 UTC NOAA

Station name not available
Feb 26, 2020 - 05:55 AM EST / 2020.02.26 1055 UTC
Wind: from the W (270 degrees) at 7 MPH (6 KT):0
Visibility: 10 mile(s):0
Sky conditions: overcast
Temperature: 37 F (3 C)
Dew Point: 35 F (2 C)
Relative Humidity: 93%
Pressure (altimeter): 29.96 in. Hg (1014 hPa)
ob: KPHT 261055Z AUTO 27006KT 10SM OVC013 03/02 A2996 RMK A01
cycle: 11

Station Type Date Time Source
KPHT TAF UTC NOAA

Error!

Example: see airport list